Time;durP1;ratioP1;P1;durP2;ratioP2;P2;SDS_P1;SDS_P2;PMS_P1;PMS_P2;Temp;Humidity;BMP_temperature;BMP_pressure;BME280_temperature;BME280_humidity;BME280_pressure;Samples;Min_cycle;Max_cycle;Signal;HPM_P1;HPM_P2
2022/11/05 00:09:37;;;;;;;245.45;151.20;;;;;;;21.51;73.44;98930.00;4871817;29;20481;-61
2022/11/05 00:18:40;;;;;;;245.48;155.15;;;;;;;21.59;72.86;98945.81;4870232;29;20128;-61
2022/11/05 00:27:24;;;;;;;244.05;155.35;;;;;;;21.58;73.50;98966.03;4874202;29;20041;-62
2022/11/05 00:30:17;;;;;;;262.35;159.35;;;;;;;21.59;73.77;98967.66;4875550;29;20053;-62
2022/11/05 00:32:59;;;;;;;244.25;153.68;;;;;;;21.63;73.16;98966.00;4872456;29;20076;-61
2022/11/05 00:35:54;;;;;;;256.33;156.88;;;;;;;21.68;72.44;98963.22;4873014;29;20582;-61
2022/11/05 00:38:30;;;;;;;254.90;154.70;;;;;;;21.65;73.26;98968.47;4880493;29;20064;-61
2022/11/05 00:41:19;;;;;;;259.10;158.95;;;;;;;21.69;72.12;98962.16;4874712;29;20108;-61
2022/11/05 00:50:29;;;;;;;240.85;150.90;;;;;;;21.63;72.26;98966.00;4874918;29;20053;-60
2022/11/05 00:53:18;;;;;;;255.15;155.02;;;;;;;21.55;72.43;98973.94;4873611;29;20089;-61
2022/11/05 00:56:00;;;;;;;246.85;154.45;;;;;;;21.63;72.49;98971.47;4875407;29;20057;-61
2022/11/05 00:58:49;;;;;;;259.00;159.13;;;;;;;21.63;72.21;98974.19;4891448;29;20128;-61
2022/11/05 01:01:31;;;;;;;257.35;158.15;;;;;;;21.67;72.17;98975.28;4878632;29;20137;-61
2022/11/05 01:04:20;;;;;;;259.92;158.52;;;;;;;21.80;71.44;98970.28;4873609;29;20101;-62
2022/11/05 01:07:02;;;;;;;257.67;158.40;;;;;;;21.72;71.30;98981.81;4875761;29;20153;-61
2022/11/05 01:09:51;;;;;;;251.98;157.35;;;;;;;21.60;72.29;98982.94;4874903;29;20720;-61
2022/11/05 01:12:33;;;;;;;276.00;163.68;;;;;;;21.68;71.71;98982.34;4873472;29;20089;-62
2022/11/05 01:15:23;;;;;;;258.25;164.82;;;;;;;21.68;71.62;98984.28;4872650;29;20053;-60
2022/11/05 01:18:05;;;;;;;262.05;162.00;;;;;;;21.69;71.07;98992.19;4877140;29;20185;-61
2022/11/05 01:20:54;;;;;;;268.10;162.38;;;;;;;21.67;70.71;98990.84;4874122;29;20069;-62
2022/11/05 01:23:43;;;;;;;270.05;166.63;;;;;;;21.30;72.13;98992.88;4860666;29;20081;-62
2022/11/05 01:26:25;;;;;;;255.25;159.40;;;;;;;21.67;71.81;98997.13;4874672;29;20045;-61
2022/11/05 01:29:21;;;;;;;262.02;159.80;;;;;;;21.67;71.42;98996.31;4878014;29;20052;-61
2022/11/05 01:32:17;;;;;;;270.10;167.18;;;;;;;21.72;71.38;99001.72;4871695;29;20065;-61
2022/11/05 01:34:53;;;;;;;259.55;164.25;;;;;;;21.68;71.42;99009.66;4872036;29;20140;-60
2022/11/05 01:37:49;;;;;;;269.50;166.27;;;;;;;21.70;70.85;99009.38;4860075;29;20060;-62
2022/11/05 01:40:25;;;;;;;267.73;166.23;;;;;;;21.64;71.38;99019.53;4872983;29;20052;-62
2022/11/05 01:43:19;;;;;;;266.98;159.60;;;;;;;21.61;72.27;99025.56;4874689;29;20390;-60
2022/11/05 01:46:03;;;;;;;272.30;164.85;;;;;;;21.56;72.15;99025.56;4873018;29;20049;-62
2022/11/05 01:49:01;;;;;;;277.95;166.30;;;;;;;21.58;72.43;99031.56;4873169;29;20101;-61
2022/11/05 01:51:50;;;;;;;268.40;165.35;;;;;;;21.64;71.77;99033.19;4871791;29;20056;-60
2022/11/05 01:54:41;;;;;;;264.27;165.88;;;;;;;21.49;71.94;99031.31;4870908;29;20152;-62
2022/11/05 01:57:25;;;;;;;274.17;169.20;;;;;;;21.58;72.20;99041.69;4872364;29;20049;-61
2022/11/05 02:00:15;;;;;;;276.67;166.18;;;;;;;21.60;71.55;99044.94;4872416;29;20060;-61
2022/11/05 02:03:11;;;;;;;271.48;164.02;;;;;;;21.50;72.52;99054.81;4874308;29;20045;-61
2022/11/05 02:05:50;;;;;;;282.80;167.77;;;;;;;21.56;71.56;99054.78;4872201;29;20049;-61
2022/11/05 02:08:56;;;;;;;268.30;170.15;;;;;;;21.43;72.06;99062.44;4870257;29;20058;-61
2022/11/05 02:11:32;;;;;;;270.73;166.05;;;;;;;21.64;71.61;99062.41;4870838;29;20061;-61
2022/11/05 02:14:28;;;;;;;282.42;161.95;;;;;;;21.74;71.01;99064.28;4872360;29;20144;-61
2022/11/05 02:17:22;;;;;;;293.20;165.73;;;;;;;21.73;71.33;99065.41;4845835;29;20049;-61
2022/11/05 02:20:25;;;;;;;273.88;164.55;;;;;;;21.79;71.50;99070.56;4875198;29;20482;-60
2022/11/05 02:23:10;;;;;;;278.85;169.30;;;;;;;21.66;71.70;99071.94;4871783;29;20125;-60
2022/11/05 02:26:49;;;;;;;264.45;163.43;;;;;;;21.31;72.63;99076.38;4878294;29;20064;-61
2022/11/05 02:29:42;;;;;;;266.13;168.27;;;;;;;21.48;71.86;99076.13;4870122;29;20065;-60
2022/11/05 02:33:04;;;;;;;280.00;170.13;;;;;;;21.74;71.93;99081.47;4873876;29;20053;-60
2022/11/05 02:36:00;;;;;;;284.52;169.55;;;;;;;21.50;72.27;99082.13;4866281;29;20052;-61
2022/11/05 02:39:03;;;;;;;275.98;169.77;;;;;;;21.57;72.22;99087.31;4870912;29;20057;-63
2022/11/05 02:41:54;;;;;;;280.40;166.95;;;;;;;21.59;71.78;99097.91;4871251;29;20377;-61
2022/11/05 02:45:29;;;;;;;279.02;168.68;;;;;;;21.80;71.96;99104.97;4872973;29;20053;-60
2022/11/05 02:49:01;;;;;;;286.23;164.77;;;;;;;21.99;71.31;99107.91;4873214;29;20077;-61
2022/11/05 02:52:12;;;;;;;271.13;165.18;;;;;;;21.88;71.87;99122.72;4869444;29;20060;-62
2022/11/05 02:55:02;;;;;;;269.63;165.23;;;;;;;22.02;71.97;99129.22;4872305;29;20668;-62
2022/11/05 02:57:58;;;;;;;283.95;167.73;;;;;;;22.01;71.99;99132.22;4872187;29;20041;-61
2022/11/05 03:00:50;;;;;;;267.23;166.85;;;;;;;21.94;71.88;99138.00;4871198;29;20128;-62
2022/11/05 03:03:53;;;;;;;268.00;160.70;;;;;;;22.36;70.69;99138.69;4872546;29;21169;-62
2022/11/05 03:06:48;;;;;;;265.38;159.60;;;;;;;22.41;70.45;99147.69;4871451;29;20132;-61
2022/11/05 03:10:11;;;;;;;257.55;155.05;;;;;;;22.26;70.68;99145.81;4872595;29;20072;-62
2022/11/05 03:13:26;;;;;;;257.27;155.25;;;;;;;22.39;70.74;99151.75;4872764;29;20097;-62
2022/11/05 03:16:47;;;;;;;246.27;154.40;;;;;;;22.79;70.28;99158.91;4874705;29;20469;-61
2022/11/05 03:20:10;;;;;;;250.70;151.95;;;;;;;22.59;70.30;99159.88;4869837;29;20059;-61
2022/11/05 03:23:15;;;;;;;246.82;149.43;;;;;;;22.54;70.45;99161.81;4870314;29;20830;-62
2022/11/05 03:26:12;;;;;;;248.95;150.38;;;;;;;22.72;70.52;99160.34;4872317;29;20051;-61
2022/11/05 03:29:16;;;;;;;;;;;;;;;22.53;70.95;99165.63;4875040;29;20060;-62
2022/11/05 03:31:55;;;;;;;242.98;146.02;;;;;;;22.60;71.07;99168.88;4871371;29;19924;-62
2022/11/05 03:34:55;;;;;;;232.60;145.18;;;;;;;22.31;71.76;99175.03;4871101;29;20049;-62
2022/11/05 03:37:33;;;;;;;;;;;;;;;23.02;70.91;99181.22;4871709;29;20573;-61
2022/11/05 03:40:29;;;;;;;242.82;143.30;;;;;;;22.90;70.61;99180.75;4879527;29;20336;-62
2022/11/05 03:43:07;;;;;;;232.90;143.27;;;;;;;22.56;71.63;99179.56;4871342;29;20076;-62
2022/11/05 03:45:58;;;;;;;230.85;140.85;;;;;;;;;;4869239;29;20200;-61
2022/11/05 03:48:45;;;;;;;221.73;136.63;;;;;;;22.77;71.19;99182.19;4860025;29;20521;-62
2022/11/05 03:51:59;;;;;;;227.00;137.55;;;;;;;23.05;70.59;99194.38;4870733;29;20057;-61
2022/11/05 03:54:36;;;;;;;229.02;138.60;;;;;;;23.01;70.76;99201.50;4871698;29;20045;-61
2022/11/05 03:57:30;;;;;;;229.88;139.38;;;;;;;23.04;70.63;99195.47;4872260;29;20144;-60
2022/11/05 04:00:14;;;;;;;221.73;135.63;;;;;;;23.53;69.43;99199.19;4875193;29;20048;-61
2022/11/05 04:03:09;;;;;;;213.18;131.40;;;;;;;23.14;70.15;99202.78;4890556;29;20055;-61
2022/11/05 04:13:22;;;;;;;221.43;131.57;;;;;;;22.90;71.21;99203.47;4875497;29;20053;-61
2022/11/05 04:15:04;;;;;;;208.98;128.25;;;;;;;23.62;68.95;99195.53;4880093;29;20120;-61
2022/11/05 04:17:54;;;;;;;203.05;126.47;;;;;;;23.82;68.68;99200.03;4862008;29;20492;-61
2022/11/05 04:26:44;;;;;;;202.65;122.35;;;;;;;22.96;71.70;99201.50;4872195;29;20155;-61
2022/11/05 04:32:46;;;;;;;194.40;119.72;;;;;;;23.74;69.28;99210.78;4863893;29;20056;-63
2022/11/05 04:35:22;;;;;;;191.48;121.10;;;;;;;23.92;69.23;99201.88;4870225;29;20061;-63
2022/11/05 04:38:20;;;;;;;203.43;119.18;;;;;;;24.31;68.32;99203.63;4879194;29;20053;-62
2022/11/05 04:41:14;;;;;;;200.32;119.88;;;;;;;24.22;68.56;99202.63;4871939;29;20879;-61
2022/11/05 04:44:03;;;;;;;195.77;118.70;;;;;;;24.36;68.06;99206.31;4872804;29;20076;-60
2022/11/05 04:46:52;;;;;;;189.85;117.22;;;;;;;24.48;67.96;99207.81;4879202;29;20060;-61
2022/11/05 04:49:47;;;;;;;184.13;110.85;;;;;;;24.19;68.91;99208.69;4871245;29;20125;-62
2022/11/05 04:52:36;;;;;;;188.30;114.18;;;;;;;24.02;68.83;99211.91;4868741;29;20061;-62
2022/11/05 04:55:25;;;;;;;180.55;113.85;;;;;;;24.13;68.93;99207.09;4872762;29;20122;-62
2022/11/05 04:58:21;;;;;;;178.43;110.85;;;;;;;24.13;68.96;99205.19;4870220;29;20049;-61
2022/11/05 05:01:15;;;;;;;186.77;109.80;;;;;;;24.38;68.56;99212.31;4867478;29;20045;-62
2022/11/05 05:03:58;;;;;;;180.63;112.60;;;;;;;24.44;68.67;99202.09;4873249;29;20045;-61
2022/11/05 05:06:47;;;;;;;185.38;110.75;;;;;;;24.95;68.87;99203.34;4865538;29;20158;-61
2022/11/05 05:09:29;;;;;;;177.88;110.70;;;;;;;25.06;67.71;99209.50;4870872;29;20060;-64
2022/11/05 05:12:18;;;;;;;186.00;110.80;;;;;;;25.10;67.52;99205.84;4870784;29;20056;-64
2022/11/05 05:15:08;;;;;;;173.30;106.20;;;;;;;25.09;66.50;99197.91;4876083;29;20052;-62
2022/11/05 05:17:53;;;;;;;184.52;110.88;;;;;;;24.89;67.53;99201.78;4874580;29;20100;-65
2022/11/05 05:23:45;;;;;;;171.75;106.90;;;;;;;24.91;67.62;99199.56;4888404;29;20053;-64
2022/11/05 05:26:34;;;;;;;171.65;105.15;;;;;;;24.81;68.23;99195.03;4874237;29;20121;-61
2022/11/05 05:29:18;;;;;;;186.07;109.55;;;;;;;24.80;68.04;99193.38;4874435;29;20148;-65
2022/11/05 05:32:06;;;;;;;173.32;106.60;;;;;;;25.14;69.58;99193.16;4879106;29;20045;-63
2022/11/05 05:34:48;;;;;;;176.32;107.80;;;;;;;25.17;70.50;99198.06;4871713;29;20489;-67
2022/11/05 05:37:37;;;;;;;173.85;105.68;;;;;;;24.89;69.88;99196.28;4873215;29;20517;-64
2022/11/05 05:40:27;;;;;;;174.90;106.97;;;;;;;25.23;67.90;99201.56;4851156;29;20458;-65
2022/11/05 05:43:16;;;;;;;171.90;107.78;;;;;;;25.38;68.19;99200.50;4868129;29;20045;-62
2022/11/05 05:46:07;;;;;;;176.15;104.22;;;;;;;25.04;69.65;99196.06;4873320;29;20148;-61
2022/11/05 05:48:53;;;;;;;175.50;102.10;;;;;;;25.05;68.51;99194.97;4876316;29;20069;-65
2022/11/05 05:51:48;;;;;;;170.20;99.80;;;;;;;25.71;67.29;99182.06;4870097;29;20080;-62
2022/11/05 05:54:37;;;;;;;168.38;102.97;;;;;;;25.98;67.72;99178.53;4863458;29;20156;-61
2022/11/05 05:57:23;;;;;;;162.57;100.30;;;;;;;25.96;67.21;99180.78;4873898;29;20123;-66
2022/11/05 06:00:13;;;;;;;164.88;104.97;;;;;;;25.91;66.79;99183.66;4872977;29;20081;-66
2022/11/05 06:02:55;;;;;;;163.32;99.75;;;;;;;26.15;65.38;99174.38;4870228;29;20060;-66
2022/11/05 06:05:44;;;;;;;163.60;99.15;;;;;;;25.66;66.55;99175.84;4871162;29;20128;-63
2022/11/05 06:08:26;;;;;;;163.93;100.13;;;;;;;25.37;66.77;99171.38;4872257;29;20049;-62
2022/11/05 06:11:15;;;;;;;166.32;99.38;;;;;;;25.84;66.78;99174.16;4871916;29;20434;-62
2022/11/05 06:13:57;;;;;;;170.43;99.03;;;;;;;25.46;66.90;99171.53;4872870;29;20712;-64
2022/11/05 06:16:46;;;;;;;157.20;96.70;;;;;;;25.43;67.84;99161.94;4873537;29;20152;-64
2022/11/05 06:19:28;;;;;;;169.30;97.28;;;;;;;25.25;67.18;99157.31;4861931;29;20068;-63
2022/11/05 06:22:17;;;;;;;159.15;97.80;;;;;;;25.16;67.62;99146.16;4870763;29;20053;-62
2022/11/05 06:24:59;;;;;;;148.93;94.38;;;;;;;25.36;68.37;99147.78;4876803;29;20063;-64
2022/11/05 06:27:48;;;;;;;162.95;98.97;;;;;;;25.53;67.92;99144.47;4876757;29;20057;-61
2022/11/05 06:30:30;;;;;;;170.00;100.05;;;;;;;25.37;68.29;99142.00;4875515;29;20329;-71
2022/11/05 06:33:19;;;;;;;168.05;97.25;;;;;;;25.24;68.23;99140.03;4871502;29;20072;-66
2022/11/05 06:36:14;;;;;;;177.27;101.78;;;;;;;25.45;68.41;99137.75;4887334;29;20055;-66
2022/11/05 06:39:02;;;;;;;173.07;99.90;;;;;;;25.21;69.70;99130.41;4872557;29;20139;-65
2022/11/05 06:41:44;;;;;;;163.60;99.50;;;;;;;25.61;68.18;99127.28;4876288;29;20072;-72
2022/11/05 06:44:53;;;;;;;159.48;94.90;;;;;;;25.37;68.89;99117.28;4888222;29;20052;-66
2022/11/05 06:47:42;;;;;;;164.00;98.07;;;;;;;25.46;67.92;99111.88;4887034;29;20063;-63
2022/11/05 06:50:37;;;;;;;156.88;98.72;;;;;;;25.89;66.75;99117.13;4875135;29;20559;-64
2022/11/05 06:53:13;;;;;;;171.68;96.72;;;;;;;25.88;66.56;99101.72;4875945;29;20708;-62
2022/11/05 06:56:06;;;;;;;158.10;96.72;;;;;;;25.88;67.32;99096.22;4874599;29;20057;-61
2022/11/05 06:58:55;;;;;;;166.70;98.45;;;;;;;25.62;67.32;99084.13;4871740;29;20109;-68
2022/11/05 07:01:51;;;;;;;167.13;96.00;;;;;;;25.90;67.16;99083.00;4870106;29;20117;-58
2022/11/05 07:04:27;;;;;;;154.38;90.68;;;;;;;26.05;67.02;99081.09;4874720;29;20056;-62
2022/11/05 07:07:21;;;;;;;151.93;91.95;;;;;;;26.12;66.55;99075.97;4878823;29;20049;-60
2022/11/05 07:09:57;;;;;;;165.93;95.82;;;;;;;25.92;66.14;99075.28;4873022;29;20064;-59
2022/11/05 07:12:52;;;;;;;169.30;98.00;;;;;;;26.24;66.00;99067.19;4872269;29;20061;-59
2022/11/05 07:15:28;;;;;;;158.82;93.85;;;;;;;26.29;65.34;99067.06;4876728;29;20477;-61
2022/11/05 07:18:23;;;;;;;155.20;93.38;;;;;;;25.97;66.79;99063.38;4870558;29;20045;-61
2022/11/05 07:20:59;;;;;;;153.90;91.57;;;;;;;26.66;64.85;99052.19;4873601;29;20052;-60
2022/11/05 07:23:55;;;;;;;150.52;92.50;;;;;;;26.65;64.82;99047.00;4873047;29;20128;-59
2022/11/05 07:26:31;;;;;;;144.30;92.30;;;;;;;26.61;65.14;99046.81;4880279;29;20065;-64
2022/11/05 07:29:19;;;;;;;145.88;89.95;;;;;;;26.84;64.80;99046.81;4870722;29;20132;-67
2022/11/05 07:32:01;;;;;;;166.32;95.53;;;;;;;26.49;65.53;99043.78;4868471;29;20382;-66
2022/11/05 07:34:50;;;;;;;165.95;96.50;;;;;;;26.40;65.81;99034.63;4871584;29;20481;-66
2022/11/05 07:37:39;;;;;;;167.00;96.43;;;;;;;26.61;64.96;99029.50;4872572;29;20072;-63
2022/11/05 07:40:24;;;;;;;158.93;96.20;;;;;;;26.35;65.55;99030.88;4882095;29;20116;-66
2022/11/05 07:43:13;;;;;;;158.30;95.63;;;;;;;26.68;64.67;99025.16;4871545;29;20052;-64
2022/11/05 07:45:55;;;;;;;156.40;97.22;;;;;;;26.89;64.58;99016.41;4874000;29;20064;-66
2022/11/05 07:48:55;;;;;;;153.35;93.43;;;;;;;26.85;64.11;99009.91;4871796;29;20044;-64
2022/11/05 07:51:44;;;;;;;150.40;92.53;;;;;;;26.86;64.55;99006.81;4890372;29;20052;-64
2022/11/05 07:57:36;;;;;;;157.63;98.32;;;;;;;26.79;64.11;98987.19;5166896;23;20051;-61
2022/11/05 08:00:26;;;;;;;157.60;98.28;;;;;;;26.63;64.91;98984.00;4930379;29;20055;-65
2022/11/05 08:03:09;;;;;;;156.73;96.00;;;;;;;27.11;64.41;98986.06;4927016;29;20056;-63
2022/11/05 08:05:59;;;;;;;169.88;99.07;;;;;;;27.38;63.29;98972.41;4914980;29;20130;-65
2022/11/05 08:08:48;;;;;;;166.45;99.88;;;;;;;27.22;64.05;98978.31;4932589;29;20070;-64
2022/11/05 08:11:31;;;;;;;167.10;101.97;;;;;;;27.36;63.74;98983.75;4932256;29;20062;-64
2022/11/05 08:14:20;;;;;;;186.55;105.97;;;;;;;27.24;63.45;98970.53;4937037;29;20062;-62
2022/11/05 08:17:03;;;;;;;177.05;109.47;;;;;;;27.51;63.36;98964.00;4927309;29;20059;-62
2022/11/05 08:19:58;;;;;;;193.77;111.63;;;;;;;27.56;62.92;98970.53;4929108;29;20506;-64
2022/11/05 08:22:46;;;;;;;177.10;111.53;;;;;;;27.45;62.72;98958.97;4932142;29;20052;-66
2022/11/05 08:25:35;;;;;;;188.75;114.93;;;;;;;27.47;63.01;98962.22;4917858;29;20110;-66
2022/11/05 08:28:25;;;;;;;190.60;114.28;;;;;;;27.42;62.85;98965.94;4928842;29;20727;-62
2022/11/05 08:31:16;;;;;;;194.73;116.70;;;;;;;27.83;62.02;98959.22;4930550;29;20039;-63
2022/11/05 08:33:59;;;;;;;181.07;113.20;;;;;;;28.05;62.18;98960.22;4931429;29;20107;-63
2022/11/05 08:36:48;;;;;;;196.48;119.63;;;;;;;27.73;62.68;98951.25;4930687;29;20047;-64
2022/11/05 08:39:37;;;;;;;195.88;115.15;;;;;;;27.99;62.34;98953.25;4932629;29;20055;-64
2022/11/05 08:42:26;;;;;;;209.80;121.57;;;;;;;27.94;62.66;98951.47;4926839;29;20150;-63
2022/11/05 08:45:09;;;;;;;195.45;123.38;;;;;;;28.06;62.57;98937.81;4925727;29;20051;-64
2022/11/05 08:48:05;;;;;;;192.10;118.68;;;;;;;27.99;61.93;98936.69;4933517;29;20062;-64
2022/11/05 08:50:45;;;;;;;192.73;118.15;;;;;;;28.03;62.04;98932.97;4933382;29;20055;-64
2022/11/05 08:53:33;;;;;;;187.38;107.07;;;;;;;27.40;62.64;98940.66;4933174;29;20479;-63
2022/11/05 08:56:22;;;;;;;169.85;106.47;;;;;;;27.67;61.43;98927.72;4930264;29;20126;-63
2022/11/05 08:59:04;;;;;;;167.93;106.50;;;;;;;27.93;60.84;98919.50;4928978;29;20056;-63
2022/11/05 09:01:53;;;;;;;170.15;107.53;;;;;;;27.60;61.52;98919.94;4916999;29;20439;-65
2022/11/05 09:04:36;;;;;;;182.93;107.55;;;;;;;27.89;61.52;98924.03;4937580;29;20070;-69
2022/11/05 09:07:25;;;;;;;183.18;109.22;;;;;;;27.90;61.21;98923.72;4928338;29;20063;-67
2022/11/05 09:10:08;;;;;;;183.38;111.15;;;;;;;27.79;61.39;98919.63;4926611;29;20151;-66
2022/11/05 09:12:57;;;;;;;189.10;113.25;;;;;;;27.86;61.76;98916.38;4912443;29;20055;-68
2022/11/05 09:15:40;;;;;;;183.48;114.20;;;;;;;28.01;60.90;98915.09;4931234;29;20079;-66
2022/11/05 09:18:28;;;;;;;191.82;117.25;;;;;;;27.81;61.28;98903.56;4937166;29;20133;-70
2022/11/05 09:21:10;;;;;;;196.13;116.93;;;;;;;27.97;61.12;98911.38;4940997;29;20051;-64
2022/11/05 09:23:59;;;;;;;188.93;117.25;;;;;;;27.97;60.94;98903.91;4922163;29;20463;-64
2022/11/05 09:26:42;;;;;;;201.20;120.68;;;;;;;28.16;61.18;98905.53;4932046;29;20048;-65
2022/11/05 09:29:31;;;;;;;189.30;120.35;;;;;;;27.84;60.38;98902.09;4930992;29;20170;-67
2022/11/05 09:32:17;;;;;;;200.02;119.43;;;;;;;27.46;61.45;98906.28;4934114;29;20051;-66
2022/11/05 09:35:06;;;;;;;189.43;117.97;;;;;;;27.47;61.86;98896.88;4937953;29;20710;-70
2022/11/05 09:38:01;;;;;;;197.15;121.47;;;;;;;27.32;61.76;98900.09;4932443;29;20082;-70
2022/11/05 09:41:07;;;;;;;193.25;123.90;;;;;;;27.66;61.68;98896.56;4932129;29;20514;-70
2022/11/05 09:44:12;;;;;;;199.88;123.30;;;;;;;27.67;61.65;98894.66;4933320;29;20129;-71
2022/11/05 09:47:13;;;;;;;206.32;129.75;;;;;;;27.60;62.58;98888.78;4925661;29;20063;-69
2022/11/05 09:49:54;;;;;;;214.43;131.80;;;;;;;27.95;61.33;98888.81;4930578;29;20077;-69
2022/11/05 09:52:50;;;;;;;206.32;129.13;;;;;;;28.14;61.31;98885.72;4926284;29;20086;-67
2022/11/05 09:55:34;;;;;;;205.63;130.18;;;;;;;27.94;61.22;98892.75;4938922;29;20059;-63
2022/11/05 09:58:49;;;;;;;220.35;131.93;;;;;;;28.06;61.36;98885.41;4933709;29;20062;-63
2022/11/05 10:01:36;;;;;;;214.05;130.07;;;;;;;27.66;62.01;98885.53;4905066;29;20256;-66
2022/11/05 10:04:30;;;;;;;219.25;128.85;;;;;;;28.02;61.29;98883.63;4933918;29;20059;-65
2022/11/05 10:07:24;;;;;;;226.20;133.05;;;;;;;28.05;61.72;98883.81;4919951;29;20049;-65
2022/11/05 10:10:25;;;;;;;210.23;131.50;;;;;;;28.01;62.06;98879.25;4931381;29;20058;-65
2022/11/05 10:13:23;;;;;;;210.07;128.60;;;;;;;28.08;61.37;98874.06;4930399;29;20047;-66
2022/11/05 10:16:29;;;;;;;217.23;133.13;;;;;;;27.86;61.65;98880.50;4937036;29;20074;-68
2022/11/05 10:19:31;;;;;;;221.18;130.75;;;;;;;27.96;62.05;98879.44;4930566;29;20111;-68
2022/11/05 10:22:17;;;;;;;214.07;129.32;;;;;;;27.96;62.08;98876.69;4912669;29;20480;-65
2022/11/05 10:25:06;;;;;;;209.70;127.28;;;;;;;27.72;62.74;98876.00;4929728;29;20048;-64
2022/11/05 10:28:05;;;;;;;204.38;124.18;;;;;;;27.91;62.60;98878.44;4912982;29;20051;-64
2022/11/05 10:31:02;;;;;;;196.25;124.30;;;;;;;27.89;62.98;98872.44;4930775;29;20081;-65
2022/11/05 10:34:10;;;;;;;197.82;123.35;;;;;;;27.92;62.41;98874.56;4931405;29;20059;-63
2022/11/05 10:36:46;;;;;;;210.73;128.98;;;;;;;27.65;63.04;98870.16;4904893;29;20182;-64
2022/11/05 10:39:42;;;;;;;204.77;127.78;;;;;;;27.73;63.24;98871.28;4893274;29;20574;-67
2022/11/05 10:42:36;;;;;;;206.85;127.95;;;;;;;27.97;62.34;98870.00;4925635;29;20058;-65
2022/11/05 10:46:02;;;;;;;217.20;129.50;;;;;;;27.75;63.07;98863.50;4910300;29;20051;-63
2022/11/05 10:48:51;;;;;;;201.90;125.47;;;;;;;27.88;63.05;98862.56;4922733;29;20043;-67
2022/11/05 10:51:33;;;;;;;207.95;127.25;;;;;;;27.58;63.80;98866.25;4908543;29;20052;-65
2022/11/05 10:54:29;;;;;;;196.40;123.78;;;;;;;27.66;63.54;98860.72;4919961;29;20051;-67
2022/11/05 10:57:45;;;;;;;207.77;121.45;;;;;;;27.74;63.60;98850.84;4924038;29;20138;-66
2022/11/05 11:00:23;;;;;;;200.75;125.85;;;;;;;27.54;63.87;98846.78;4923969;29;20150;-66
2022/11/05 11:03:55;;;;;;;213.95;127.03;;;;;;;27.77;63.35;98850.19;4924687;29;20040;-64
2022/11/05 11:06:49;;;;;;;196.00;124.95;;;;;;;27.70;63.62;98842.41;4847342;29;20225;-67
2022/11/05 11:09:34;;;;;;;205.32;128.88;;;;;;;27.54;64.19;98849.53;4924639;29;20043;-68
2022/11/05 11:12:42;;;;;;;217.18;132.95;;;;;;;27.63;64.01;98844.03;4925333;29;20051;-68
2022/11/05 11:15:38;;;;;;;213.63;129.70;;;;;;;27.60;64.28;98851.00;4922847;29;20130;-67
2022/11/05 11:18:25;;;;;;;225.10;134.43;;;;;;;27.13;65.12;98843.31;4925671;29;20048;-67
2022/11/05 11:21:25;;;;;;;232.95;135.95;;;;;;;27.06;65.21;98842.16;4907170;29;20150;-66
2022/11/05 11:24:27;;;;;;;225.98;133.60;;;;;;;27.28;64.56;98844.78;4920379;29;20047;-66
2022/11/05 11:27:37;;;;;;;221.43;134.15;;;;;;;27.13;65.07;98839.72;4921693;29;20761;-65
2022/11/05 11:30:18;;;;;;;240.13;139.67;;;;;;;27.27;64.80;98836.88;4905241;29;20040;-61
2022/11/05 11:33:10;;;;;;;239.27;137.45;;;;;;;27.17;65.29;98837.13;4919427;29;20142;-64
2022/11/05 11:35:54;;;;;;;231.75;142.85;;;;;;;27.39;64.73;98833.47;4922303;29;20055;-62
2022/11/05 11:38:42;;;;;;;237.80;141.90;;;;;;;27.09;65.21;98836.78;4928228;29;20046;-62
2022/11/05 11:41:42;;;;;;;238.55;146.00;;;;;;;27.19;64.88;98821.91;4919549;29;20051;-66
2022/11/05 11:44:40;;;;;;;231.05;142.57;;;;;;;27.31;64.77;98833.13;4925126;29;20196;-65
2022/11/05 11:47:29;;;;;;;227.48;140.18;;;;;;;27.27;64.76;98832.16;4928182;29;20691;-68
2022/11/05 11:50:32;;;;;;;242.18;144.10;;;;;;;27.21;64.86;98835.34;4919163;29;20043;-69
2022/11/05 11:53:32;;;;;;;245.18;140.88;;;;;;;27.18;65.17;98830.50;4912257;29;20044;-68
2022/11/05 11:56:29;;;;;;;243.20;141.73;;;;;;;27.13;65.46;98825.94;4923905;29;20161;-68
2022/11/05 11:59:27;;;;;;;227.73;139.75;;;;;;;27.15;65.46;98827.25;4922879;29;20626;-67
2022/11/05 12:03:23;;;;;;;232.65;137.60;;;;;;;27.08;65.86;98832.44;4919005;29;20043;-63
2022/11/05 12:06:44;;;;;;;221.95;135.98;;;;;;;27.16;65.72;98825.31;4925584;29;20230;-62
2022/11/05 12:09:57;;;;;;;229.77;137.32;;;;;;;27.07;66.77;98835.50;4899621;29;20398;-67
2022/11/05 12:12:51;;;;;;;239.75;138.65;;;;;;;27.00;66.36;98830.47;4922883;29;20056;-65
2022/11/05 12:15:52;;;;;;;243.93;141.98;;;;;;;26.90;66.49;98834.34;4932620;29;20055;-65
2022/11/05 12:18:59;;;;;;;251.75;142.40;;;;;;;26.85;66.93;98831.72;4927310;29;20059;-64
2022/11/05 12:21:54;;;;;;;249.45;144.55;;;;;;;26.86;67.90;98838.03;4924937;29;20070;-62
2022/11/05 12:24:46;;;;;;;267.05;149.05;;;;;;;26.71;67.65;98836.50;4929659;29;20423;-64
2022/11/05 12:27:38;;;;;;;269.77;153.15;;;;;;;26.65;67.81;98843.28;4940024;29;20055;-69
2022/11/05 12:30:21;;;;;;;268.85;154.85;;;;;;;26.49;68.33;98845.63;4931014;29;20050;-63
2022/11/05 12:33:29;;;;;;;262.02;150.63;;;;;;;26.63;68.45;98849.09;4930238;29;20443;-62
2022/11/05 12:36:20;;;;;;;270.15;153.90;;;;;;;26.49;68.51;98845.63;4926329;29;20142;-66
2022/11/05 12:39:53;;;;;;;263.92;152.07;;;;;;;26.55;68.19;98849.84;4923541;29;20055;-67
2022/11/05 12:42:35;;;;;;;270.77;159.27;;;;;;;26.35;68.43;98846.53;4917292;29;20078;-65
2022/11/05 12:46:02;;;;;;;274.75;159.25;;;;;;;26.26;68.97;98853.09;4931339;29;20091;-69
2022/11/05 12:48:45;;;;;;;281.35;158.90;;;;;;;26.29;69.01;98846.97;4930225;29;20087;-68
2022/11/05 12:51:36;;;;;;;277.08;162.70;;;;;;;26.17;69.20;98842.84;4929759;29;20083;-66
2022/11/05 12:54:49;;;;;;;288.05;169.65;;;;;;;26.31;68.89;98848.28;4934385;29;20055;-67
2022/11/05 12:57:51;;;;;;;291.60;162.32;;;;;;;26.34;68.47;98852.34;4930118;29;20103;-67
2022/11/05 13:00:29;;;;;;;299.13;167.10;;;;;;;26.15;69.17;98852.53;4924469;29;20076;-65
2022/11/05 13:03:27;;;;;;;292.00;166.80;;;;;;;26.37;68.60;98852.53;4905255;29;20081;-66
2022/11/05 13:06:21;;;;;;;289.98;168.68;;;;;;;26.14;68.75;98861.94;4941301;29;20055;-64
2022/11/05 13:09:13;;;;;;;287.63;173.70;;;;;;;26.30;68.67;98865.09;4932320;29;20059;-65
2022/11/05 13:12:17;;;;;;;299.20;172.85;;;;;;;26.02;69.65;98869.94;4934246;29;20077;-67
2022/11/05 13:15:05;;;;;;;313.70;176.68;;;;;;;26.20;68.77;98877.19;4934429;29;20057;-65
2022/11/05 13:18:18;;;;;;;301.90;174.63;;;;;;;26.35;68.41;98881.50;4929313;29;20110;-67
2022/11/05 13:21:06;;;;;;;315.55;178.95;;;;;;;26.11;68.98;98884.56;4933743;29;20052;-65
2022/11/05 13:23:59;;;;;;;322.23;187.52;;;;;;;26.05;68.75;98888.56;4934885;29;20051;-68
2022/11/05 13:27:05;;;;;;;344.85;185.65;;;;;;;26.17;69.06;98891.56;4936887;29;20055;-68
2022/11/05 13:30:08;;;;;;;338.83;188.85;;;;;;;26.11;69.00;98890.06;4920406;29;20146;-68
2022/11/05 13:33:20;;;;;;;335.88;188.07;;;;;;;26.23;68.42;98895.78;4912435;29;20044;-67
2022/11/05 13:40:01;;;;;;;339.85;186.95;;;;;;;25.90;69.44;98896.00;4933049;29;20159;-67
2022/11/05 13:43:18;;;;;;;335.98;190.23;;;;;;;25.96;69.29;98897.53;4927230;29;20055;-66
2022/11/05 13:46:28;;;;;;;349.08;199.18;;;;;;;26.09;69.39;98892.31;4912501;29;20122;-65
2022/11/05 13:49:35;;;;;;;331.55;193.93;;;;;;;26.15;68.77;98902.06;4934936;29;20134;-66
2022/11/05 13:53:15;;;;;;;330.63;197.10;;;;;;;26.07;69.07;98900.06;4930354;29;20109;-67